sensor_id;sensor_type;location;lat;lon;timestamp;P1;durP1;ratioP1;P2;durP2;ratioP2
18677;SDS011;9469;51.114;13.914;2023-12-04T00:02:16;32.70;;;17.93;;
18677;SDS011;9469;51.114;13.914;2023-12-04T00:07:21;28.57;;;17.77;;
18677;SDS011;9469;51.114;13.914;2023-12-04T00:12:29;29.00;;;16.97;;
18677;SDS011;9469;51.114;13.914;2023-12-04T00:17:35;27.77;;;17.13;;
18677;SDS011;9469;51.114;13.914;2023-12-04T00:22:42;26.03;;;15.67;;
18677;SDS011;9469;51.114;13.914;2023-12-04T00:27:50;30.00;;;16.87;;
18677;SDS011;9469;51.114;13.914;2023-12-04T00:32:55;26.07;;;15.93;;
18677;SDS011;9469;51.114;13.914;2023-12-04T00:38:00;27.17;;;16.00;;
18677;SDS011;9469;51.114;13.914;2023-12-04T00:43:08;25.77;;;16.13;;
18677;SDS011;9469;51.114;13.914;2023-12-04T00:48:13;27.77;;;15.97;;
18677;SDS011;9469;51.114;13.914;2023-12-04T00:53:19;24.33;;;14.33;;
18677;SDS011;9469;51.114;13.914;2023-12-04T00:58:29;24.70;;;15.53;;
18677;SDS011;9469;51.114;13.914;2023-12-04T01:03:34;29.77;;;18.00;;
18677;SDS011;9469;51.114;13.914;2023-12-04T01:08:40;24.63;;;14.33;;
18677;SDS011;9469;51.114;13.914;2023-12-04T01:13:48;25.07;;;15.47;;
18677;SDS011;9469;51.114;13.914;2023-12-04T01:18:54;28.27;;;16.63;;
18677;SDS011;9469;51.114;13.914;2023-12-04T01:23:59;24.53;;;14.80;;
18677;SDS011;9469;51.114;13.914;2023-12-04T01:29:07;23.63;;;14.13;;
18677;SDS011;9469;51.114;13.914;2023-12-04T01:34:12;24.33;;;16.03;;
18677;SDS011;9469;51.114;13.914;2023-12-04T01:39:17;28.80;;;16.43;;
18677;SDS011;9469;51.114;13.914;2023-12-04T01:44:25;26.60;;;15.77;;
18677;SDS011;9469;51.114;13.914;2023-12-04T01:49:30;28.63;;;15.17;;
18677;SDS011;9469;51.114;13.914;2023-12-04T01:54:36;25.30;;;15.17;;
18677;SDS011;9469;51.114;13.914;2023-12-04T01:59:44;27.80;;;17.07;;
18677;SDS011;9469;51.114;13.914;2023-12-04T02:04:50;22.40;;;14.93;;
18677;SDS011;9469;51.114;13.914;2023-12-04T02:09:55;24.87;;;15.77;;
18677;SDS011;9469;51.114;13.914;2023-12-04T02:15:03;26.17;;;16.50;;
18677;SDS011;9469;51.114;13.914;2023-12-04T02:20:10;26.00;;;14.37;;
18677;SDS011;9469;51.114;13.914;2023-12-04T02:25:20;23.63;;;14.77;;
18677;SDS011;9469;51.114;13.914;2023-12-04T02:30:37;23.67;;;14.37;;
18677;SDS011;9469;51.114;13.914;2023-12-04T02:35:44;27.67;;;17.20;;
18677;SDS011;9469;51.114;13.914;2023-12-04T02:40:53;33.40;;;18.37;;
18677;SDS011;9469;51.114;13.914;2023-12-04T02:45:59;30.87;;;17.97;;
18677;SDS011;9469;51.114;13.914;2023-12-04T02:51:04;37.43;;;19.03;;
18677;SDS011;9469;51.114;13.914;2023-12-04T02:56:13;29.83;;;17.87;;
18677;SDS011;9469;51.114;13.914;2023-12-04T03:01:18;32.00;;;18.63;;
18677;SDS011;9469;51.114;13.914;2023-12-04T03:06:23;33.13;;;19.50;;
18677;SDS011;9469;51.114;13.914;2023-12-04T03:11:31;34.73;;;19.53;;
18677;SDS011;9469;51.114;13.914;2023-12-04T03:16:36;32.67;;;21.23;;
18677;SDS011;9469;51.114;13.914;2023-12-04T03:21:41;34.20;;;22.43;;
18677;SDS011;9469;51.114;13.914;2023-12-04T03:26:49;38.67;;;21.27;;
18677;SDS011;9469;51.114;13.914;2023-12-04T03:31:54;32.87;;;19.37;;
18677;SDS011;9469;51.114;13.914;2023-12-04T03:36:59;38.73;;;21.10;;
18677;SDS011;9469;51.114;13.914;2023-12-04T03:42:07;32.57;;;18.63;;
18677;SDS011;9469;51.114;13.914;2023-12-04T03:47:12;32.60;;;18.87;;
18677;SDS011;9469;51.114;13.914;2023-12-04T03:52:17;33.27;;;19.33;;
18677;SDS011;9469;51.114;13.914;2023-12-04T03:57:25;33.07;;;20.00;;
18677;SDS011;9469;51.114;13.914;2023-12-04T04:02:30;31.50;;;20.63;;
18677;SDS011;9469;51.114;13.914;2023-12-04T04:07:35;31.60;;;20.07;;
18677;SDS011;9469;51.114;13.914;2023-12-04T04:12:43;32.43;;;19.30;;
18677;SDS011;9469;51.114;13.914;2023-12-04T04:17:49;31.23;;;18.37;;
18677;SDS011;9469;51.114;13.914;2023-12-04T04:22:54;32.47;;;18.30;;
18677;SDS011;9469;51.114;13.914;2023-12-04T04:28:02;35.33;;;19.87;;
18677;SDS011;9469;51.114;13.914;2023-12-04T04:33:07;30.47;;;18.47;;
18677;SDS011;9469;51.114;13.914;2023-12-04T04:38:13;32.50;;;18.53;;
18677;SDS011;9469;51.114;13.914;2023-12-04T04:43:21;32.33;;;19.10;;
18677;SDS011;9469;51.114;13.914;2023-12-04T04:48:26;29.03;;;17.33;;
18677;SDS011;9469;51.114;13.914;2023-12-04T04:53:31;28.30;;;16.93;;
18677;SDS011;9469;51.114;13.914;2023-12-04T04:58:41;26.23;;;16.20;;
18677;SDS011;9469;51.114;13.914;2023-12-04T05:03:53;27.07;;;15.90;;
18677;SDS011;9469;51.114;13.914;2023-12-04T05:08:59;27.83;;;16.47;;
18677;SDS011;9469;51.114;13.914;2023-12-04T05:14:07;26.47;;;15.93;;
18677;SDS011;9469;51.114;13.914;2023-12-04T05:19:14;25.50;;;14.60;;
18677;SDS011;9469;51.114;13.914;2023-12-04T05:24:27;23.43;;;14.60;;
18677;SDS011;9469;51.114;13.914;2023-12-04T05:29:35;24.20;;;15.07;;
18677;SDS011;9469;51.114;13.914;2023-12-04T05:34:43;29.63;;;14.27;;
18677;SDS011;9469;51.114;13.914;2023-12-04T05:39:49;21.37;;;13.23;;
18677;SDS011;9469;51.114;13.914;2023-12-04T05:44:59;21.80;;;14.53;;
18677;SDS011;9469;51.114;13.914;2023-12-04T05:50:06;24.17;;;15.37;;
18677;SDS011;9469;51.114;13.914;2023-12-04T05:55:12;24.97;;;14.10;;
18677;SDS011;9469;51.114;13.914;2023-12-04T06:00:20;19.67;;;12.87;;
18677;SDS011;9469;51.114;13.914;2023-12-04T06:05:30;20.13;;;13.00;;
18677;SDS011;9469;51.114;13.914;2023-12-04T06:10:35;21.43;;;13.27;;
18677;SDS011;9469;51.114;13.914;2023-12-04T06:15:43;20.80;;;13.73;;
18677;SDS011;9469;51.114;13.914;2023-12-04T06:20:49;21.00;;;13.33;;
18677;SDS011;9469;51.114;13.914;2023-12-04T06:25:54;22.53;;;14.27;;
18677;SDS011;9469;51.114;13.914;2023-12-04T06:31:03;22.90;;;13.77;;
18677;SDS011;9469;51.114;13.914;2023-12-04T06:36:10;19.63;;;13.53;;
18677;SDS011;9469;51.114;13.914;2023-12-04T06:41:19;24.30;;;14.73;;
18677;SDS011;9469;51.114;13.914;2023-12-04T06:46:28;20.57;;;12.87;;
18677;SDS011;9469;51.114;13.914;2023-12-04T06:51:37;20.60;;;12.13;;
18677;SDS011;9469;51.114;13.914;2023-12-04T06:56:42;22.87;;;13.17;;
18677;SDS011;9469;51.114;13.914;2023-12-04T07:01:50;23.90;;;14.40;;
18677;SDS011;9469;51.114;13.914;2023-12-04T07:06:55;21.33;;;12.53;;
18677;SDS011;9469;51.114;13.914;2023-12-04T07:12:09;21.77;;;12.70;;
18677;SDS011;9469;51.114;13.914;2023-12-04T07:17:18;20.30;;;12.33;;
18677;SDS011;9469;51.114;13.914;2023-12-04T07:22:24;20.40;;;12.17;;
18677;SDS011;9469;51.114;13.914;2023-12-04T07:27:29;18.13;;;12.00;;
18677;SDS011;9469;51.114;13.914;2023-12-04T07:32:39;17.03;;;11.70;;
18677;SDS011;9469;51.114;13.914;2023-12-04T07:37:48;19.93;;;12.57;;
18677;SDS011;9469;51.114;13.914;2023-12-04T07:42:53;19.57;;;11.83;;
18677;SDS011;9469;51.114;13.914;2023-12-04T07:48:01;17.13;;;11.40;;
18677;SDS011;9469;51.114;13.914;2023-12-04T07:53:07;16.90;;;10.43;;
18677;SDS011;9469;51.114;13.914;2023-12-04T07:58:17;18.23;;;12.20;;
18677;SDS011;9469;51.114;13.914;2023-12-04T08:03:25;16.57;;;10.80;;
18677;SDS011;9469;51.114;13.914;2023-12-04T08:08:31;17.97;;;10.33;;
18677;SDS011;9469;51.114;13.914;2023-12-04T08:13:38;17.33;;;11.07;;
18677;SDS011;9469;51.114;13.914;2023-12-04T08:18:46;17.53;;;10.87;;
18677;SDS011;9469;51.114;13.914;2023-12-04T08:23:51;15.77;;;10.80;;
18677;SDS011;9469;51.114;13.914;2023-12-04T08:28:57;19.93;;;11.60;;
18677;SDS011;9469;51.114;13.914;2023-12-04T08:34:07;14.90;;;10.23;;
18677;SDS011;9469;51.114;13.914;2023-12-04T08:39:13;16.57;;;10.53;;
18677;SDS011;9469;51.114;13.914;2023-12-04T08:44:18;14.50;;;11.23;;
18677;SDS011;9469;51.114;13.914;2023-12-04T08:49:29;15.37;;;10.83;;
18677;SDS011;9469;51.114;13.914;2023-12-04T08:54:48;20.57;;;12.13;;
18677;SDS011;9469;51.114;13.914;2023-12-04T08:59:53;19.97;;;11.97;;
18677;SDS011;9469;51.114;13.914;2023-12-04T09:05:01;18.50;;;12.47;;
18677;SDS011;9469;51.114;13.914;2023-12-04T09:10:09;14.73;;;11.73;;
18677;SDS011;9469;51.114;13.914;2023-12-04T09:15:32;18.40;;;11.47;;
18677;SDS011;9469;51.114;13.914;2023-12-04T09:20:42;16.23;;;11.33;;
18677;SDS011;9469;51.114;13.914;2023-12-04T09:25:48;16.90;;;10.77;;
18677;SDS011;9469;51.114;13.914;2023-12-04T09:30:56;19.90;;;14.18;;
18677;SDS011;9469;51.114;13.914;2023-12-04T09:36:05;20.27;;;12.90;;
18677;SDS011;9469;51.114;13.914;2023-12-04T09:41:32;18.93;;;11.77;;
18677;SDS011;9469;51.114;13.914;2023-12-04T09:46:40;13.83;;;10.93;;
18677;SDS011;9469;51.114;13.914;2023-12-04T09:51:52;17.57;;;11.47;;
18677;SDS011;9469;51.114;13.914;2023-12-04T09:56:58;19.97;;;12.73;;
18677;SDS011;9469;51.114;13.914;2023-12-04T10:02:05;18.97;;;12.03;;
18677;SDS011;9469;51.114;13.914;2023-12-04T10:07:14;17.87;;;12.57;;
18677;SDS011;9469;51.114;13.914;2023-12-04T10:12:19;17.93;;;11.80;;
18677;SDS011;9469;51.114;13.914;2023-12-04T10:17:26;17.50;;;11.10;;
18677;SDS011;9469;51.114;13.914;2023-12-04T10:22:51;15.63;;;10.60;;
18677;SDS011;9469;51.114;13.914;2023-12-04T10:28:07;17.40;;;11.83;;
18677;SDS011;9469;51.114;13.914;2023-12-04T10:33:15;18.03;;;11.57;;
18677;SDS011;9469;51.114;13.914;2023-12-04T10:38:26;18.30;;;11.97;;
18677;SDS011;9469;51.114;13.914;2023-12-04T10:43:32;20.07;;;12.27;;
18677;SDS011;9469;51.114;13.914;2023-12-04T10:48:38;18.93;;;11.73;;
18677;SDS011;9469;51.114;13.914;2023-12-04T10:53:47;18.93;;;12.63;;
18677;SDS011;9469;51.114;13.914;2023-12-04T10:58:55;16.90;;;11.53;;
18677;SDS011;9469;51.114;13.914;2023-12-04T11:04:08;23.07;;;14.07;;
18677;SDS011;9469;51.114;13.914;2023-12-04T11:09:22;17.23;;;11.43;;
18677;SDS011;9469;51.114;13.914;2023-12-04T11:14:31;19.67;;;12.00;;
18677;SDS011;9469;51.114;13.914;2023-12-04T11:19:46;20.63;;;12.97;;
18677;SDS011;9469;51.114;13.914;2023-12-04T11:25:02;16.67;;;12.13;;
18677;SDS011;9469;51.114;13.914;2023-12-04T11:30:10;20.63;;;12.27;;
18677;SDS011;9469;51.114;13.914;2023-12-04T11:35:18;18.23;;;12.63;;
18677;SDS011;9469;51.114;13.914;2023-12-04T11:40:26;19.47;;;12.47;;
18677;SDS011;9469;51.114;13.914;2023-12-04T11:45:36;19.87;;;13.10;;
18677;SDS011;9469;51.114;13.914;2023-12-04T11:50:46;19.93;;;13.90;;
18677;SDS011;9469;51.114;13.914;2023-12-04T11:55:55;18.03;;;12.13;;
18677;SDS011;9469;51.114;13.914;2023-12-04T12:01:01;20.23;;;13.37;;
18677;SDS011;9469;51.114;13.914;2023-12-04T12:17:16;21.93;;;13.77;;
18677;SDS011;9469;51.114;13.914;2023-12-04T12:22:21;20.87;;;13.20;;
18677;SDS011;9469;51.114;13.914;2023-12-04T12:27:29;21.77;;;13.50;;
18677;SDS011;9469;51.114;13.914;2023-12-04T12:32:35;19.03;;;13.57;;
18677;SDS011;9469;51.114;13.914;2023-12-04T12:37:41;20.10;;;13.37;;
18677;SDS011;9469;51.114;13.914;2023-12-04T12:42:48;22.13;;;13.60;;
18677;SDS011;9469;51.114;13.914;2023-12-04T12:47:57;22.60;;;13.97;;
18677;SDS011;9469;51.114;13.914;2023-12-04T12:53:02;19.80;;;13.00;;
18677;SDS011;9469;51.114;13.914;2023-12-04T12:58:11;22.20;;;13.83;;
18677;SDS011;9469;51.114;13.914;2023-12-04T13:03:17;19.63;;;13.40;;
18677;SDS011;9469;51.114;13.914;2023-12-04T13:08:25;19.50;;;13.90;;
18677;SDS011;9469;51.114;13.914;2023-12-04T13:13:33;20.10;;;13.20;;
18677;SDS011;9469;51.114;13.914;2023-12-04T13:18:38;20.33;;;13.67;;
18677;SDS011;9469;51.114;13.914;2023-12-04T13:23:46;21.03;;;13.97;;
18677;SDS011;9469;51.114;13.914;2023-12-04T13:28:57;20.97;;;13.03;;
18677;SDS011;9469;51.114;13.914;2023-12-04T13:34:04;20.67;;;13.20;;
18677;SDS011;9469;51.114;13.914;2023-12-04T13:39:09;22.13;;;13.43;;
18677;SDS011;9469;51.114;13.914;2023-12-04T13:44:21;20.53;;;13.00;;
18677;SDS011;9469;51.114;13.914;2023-12-04T13:49:27;21.47;;;13.73;;
18677;SDS011;9469;51.114;13.914;2023-12-04T13:54:32;20.83;;;13.60;;
18677;SDS011;9469;51.114;13.914;2023-12-04T13:59:49;22.03;;;14.37;;
18677;SDS011;9469;51.114;13.914;2023-12-04T14:04:54;23.70;;;14.53;;
18677;SDS011;9469;51.114;13.914;2023-12-04T14:10:00;18.90;;;11.93;;
18677;SDS011;9469;51.114;13.914;2023-12-04T14:15:08;22.30;;;14.37;;
18677;SDS011;9469;51.114;13.914;2023-12-04T14:20:14;25.20;;;14.33;;
18677;SDS011;9469;51.114;13.914;2023-12-04T14:25:21;23.23;;;13.00;;
18677;SDS011;9469;51.114;13.914;2023-12-04T14:30:30;22.07;;;13.30;;
18677;SDS011;9469;51.114;13.914;2023-12-04T14:35:37;24.07;;;15.67;;
18677;SDS011;9469;51.114;13.914;2023-12-04T14:40:47;21.10;;;14.17;;
18677;SDS011;9469;51.114;13.914;2023-12-04T14:45:56;22.47;;;13.50;;
18677;SDS011;9469;51.114;13.914;2023-12-04T14:51:09;20.87;;;13.23;;
18677;SDS011;9469;51.114;13.914;2023-12-04T14:56:15;24.90;;;15.97;;
18677;SDS011;9469;51.114;13.914;2023-12-04T15:01:29;17.87;;;12.23;;
18677;SDS011;9469;51.114;13.914;2023-12-04T15:07:12;20.33;;;13.67;;
18677;SDS011;9469;51.114;13.914;2023-12-04T15:12:30;21.23;;;13.00;;
18677;SDS011;9469;51.114;13.914;2023-12-04T15:17:56;20.47;;;13.37;;
18677;SDS011;9469;51.114;13.914;2023-12-04T15:23:23;21.90;;;12.83;;
18677;SDS011;9469;51.114;13.914;2023-12-04T15:28:31;17.03;;;12.37;;
18677;SDS011;9469;51.114;13.914;2023-12-04T15:33:39;20.20;;;13.13;;
18677;SDS011;9469;51.114;13.914;2023-12-04T15:38:44;25.37;;;15.07;;
18677;SDS011;9469;51.114;13.914;2023-12-04T15:43:52;19.33;;;12.37;;
18677;SDS011;9469;51.114;13.914;2023-12-04T15:49:01;18.37;;;12.13;;
18677;SDS011;9469;51.114;13.914;2023-12-04T15:54:06;22.57;;;13.30;;
18677;SDS011;9469;51.114;13.914;2023-12-04T15:59:12;20.03;;;12.20;;
18677;SDS011;9469;51.114;13.914;2023-12-04T16:04:23;16.37;;;11.90;;
18677;SDS011;9469;51.114;13.914;2023-12-04T16:09:29;22.23;;;13.63;;
18677;SDS011;9469;51.114;13.914;2023-12-04T16:14:34;21.67;;;12.67;;
18677;SDS011;9469;51.114;13.914;2023-12-04T16:19:43;19.07;;;12.73;;
18677;SDS011;9469;51.114;13.914;2023-12-04T16:24:50;18.93;;;12.13;;
18677;SDS011;9469;51.114;13.914;2023-12-04T16:29:58;21.53;;;13.43;;
18677;SDS011;9469;51.114;13.914;2023-12-04T16:35:07;19.50;;;12.67;;
18677;SDS011;9469;51.114;13.914;2023-12-04T16:40:20;21.50;;;13.10;;
18677;SDS011;9469;51.114;13.914;2023-12-04T16:45:26;20.50;;;13.90;;
18677;SDS011;9469;51.114;13.914;2023-12-04T16:50:38;22.27;;;13.80;;
18677;SDS011;9469;51.114;13.914;2023-12-04T16:55:43;22.67;;;14.07;;
18677;SDS011;9469;51.114;13.914;2023-12-04T17:00:49;20.80;;;13.80;;
18677;SDS011;9469;51.114;13.914;2023-12-04T17:05:58;21.97;;;12.73;;
18677;SDS011;9469;51.114;13.914;2023-12-04T17:11:12;20.67;;;13.47;;
18677;SDS011;9469;51.114;13.914;2023-12-04T17:16:22;20.77;;;13.73;;
18677;SDS011;9469;51.114;13.914;2023-12-04T17:21:32;21.77;;;15.20;;
18677;SDS011;9469;51.114;13.914;2023-12-04T17:26:38;22.13;;;14.00;;
18677;SDS011;9469;51.114;13.914;2023-12-04T17:31:45;20.97;;;15.17;;
18677;SDS011;9469;51.114;13.914;2023-12-04T17:37:14;19.33;;;13.87;;
18677;SDS011;9469;51.114;13.914;2023-12-04T17:42:22;24.57;;;14.13;;
18677;SDS011;9469;51.114;13.914;2023-12-04T17:47:29;20.03;;;14.27;;
18677;SDS011;9469;51.114;13.914;2023-12-04T17:52:37;21.30;;;14.80;;
18677;SDS011;9469;51.114;13.914;2023-12-04T17:57:45;22.60;;;14.67;;
18677;SDS011;9469;51.114;13.914;2023-12-04T18:02:50;24.73;;;14.63;;
18677;SDS011;9469;51.114;13.914;2023-12-04T18:07:59;20.20;;;14.00;;
18677;SDS011;9469;51.114;13.914;2023-12-04T18:13:06;20.80;;;14.13;;
18677;SDS011;9469;51.114;13.914;2023-12-04T18:18:12;22.03;;;14.57;;
18677;SDS011;9469;51.114;13.914;2023-12-04T18:23:21;20.07;;;14.37;;
18677;SDS011;9469;51.114;13.914;2023-12-04T18:28:27;19.20;;;13.20;;
18677;SDS011;9469;51.114;13.914;2023-12-04T18:33:35;26.20;;;14.87;;
18677;SDS011;9469;51.114;13.914;2023-12-04T18:38:45;25.90;;;14.43;;
18677;SDS011;9469;51.114;13.914;2023-12-04T18:43:57;25.13;;;15.03;;
18677;SDS011;9469;51.114;13.914;2023-12-04T18:49:04;24.17;;;15.47;;
18677;SDS011;9469;51.114;13.914;2023-12-04T18:54:15;21.20;;;13.47;;
18677;SDS011;9469;51.114;13.914;2023-12-04T18:59:21;23.63;;;14.47;;
18677;SDS011;9469;51.114;13.914;2023-12-04T19:04:29;23.57;;;16.00;;
18677;SDS011;9469;51.114;13.914;2023-12-04T19:09:40;23.37;;;14.50;;
18677;SDS011;9469;51.114;13.914;2023-12-04T19:14:45;22.53;;;15.60;;
18677;SDS011;9469;51.114;13.914;2023-12-04T19:19:51;22.63;;;14.53;;
18677;SDS011;9469;51.114;13.914;2023-12-04T19:24:59;23.10;;;14.23;;
18677;SDS011;9469;51.114;13.914;2023-12-04T19:30:06;21.17;;;14.90;;
18677;SDS011;9469;51.114;13.914;2023-12-04T19:35:13;22.00;;;14.50;;
18677;SDS011;9469;51.114;13.914;2023-12-04T19:40:25;23.30;;;15.17;;
18677;SDS011;9469;51.114;13.914;2023-12-04T19:45:32;26.03;;;16.47;;
18677;SDS011;9469;51.114;13.914;2023-12-04T19:50:38;21.57;;;15.33;;
18677;SDS011;9469;51.114;13.914;2023-12-04T19:55:50;24.80;;;15.17;;
18677;SDS011;9469;51.114;13.914;2023-12-04T20:01:00;22.63;;;14.17;;
18677;SDS011;9469;51.114;13.914;2023-12-04T20:06:09;25.07;;;16.03;;
18677;SDS011;9469;51.114;13.914;2023-12-04T20:11:17;21.03;;;16.33;;
18677;SDS011;9469;51.114;13.914;2023-12-04T20:16:23;19.73;;;14.17;;
18677;SDS011;9469;51.114;13.914;2023-12-04T20:21:31;23.67;;;14.77;;
18677;SDS011;9469;51.114;13.914;2023-12-04T20:26:40;21.63;;;14.43;;
18677;SDS011;9469;51.114;13.914;2023-12-04T20:31:46;24.00;;;15.07;;
18677;SDS011;9469;51.114;13.914;2023-12-04T20:36:53;22.27;;;15.60;;
18677;SDS011;9469;51.114;13.914;2023-12-04T20:42:01;19.60;;;14.67;;
18677;SDS011;9469;51.114;13.914;2023-12-04T20:47:10;23.03;;;14.63;;
18677;SDS011;9469;51.114;13.914;2023-12-04T20:52:15;21.83;;;14.67;;
18677;SDS011;9469;51.114;13.914;2023-12-04T20:57:23;21.80;;;14.67;;
18677;SDS011;9469;51.114;13.914;2023-12-04T21:02:30;19.57;;;14.47;;
18677;SDS011;9469;51.114;13.914;2023-12-04T21:07:35;21.00;;;13.90;;
18677;SDS011;9469;51.114;13.914;2023-12-04T21:12:43;20.87;;;15.67;;
18677;SDS011;9469;51.114;13.914;2023-12-04T21:17:49;22.63;;;12.70;;
18677;SDS011;9469;51.114;13.914;2023-12-04T21:22:54;19.13;;;13.70;;
18677;SDS011;9469;51.114;13.914;2023-12-04T21:28:03;24.60;;;15.93;;
18677;SDS011;9469;51.114;13.914;2023-12-04T21:33:08;23.07;;;15.60;;
18677;SDS011;9469;51.114;13.914;2023-12-04T21:38:14;24.57;;;15.53;;
18677;SDS011;9469;51.114;13.914;2023-12-04T21:43:22;21.80;;;14.97;;
18677;SDS011;9469;51.114;13.914;2023-12-04T21:48:27;21.13;;;14.37;;
18677;SDS011;9469;51.114;13.914;2023-12-04T21:53:33;22.63;;;15.63;;
18677;SDS011;9469;51.114;13.914;2023-12-04T21:58:41;26.77;;;17.03;;
18677;SDS011;9469;51.114;13.914;2023-12-04T22:03:46;25.33;;;17.07;;
18677;SDS011;9469;51.114;13.914;2023-12-04T22:08:52;20.53;;;14.37;;
18677;SDS011;9469;51.114;13.914;2023-12-04T22:14:01;21.10;;;15.10;;
18677;SDS011;9469;51.114;13.914;2023-12-04T22:19:07;21.97;;;14.57;;
18677;SDS011;9469;51.114;13.914;2023-12-04T22:24:12;23.40;;;15.90;;
18677;SDS011;9469;51.114;13.914;2023-12-04T22:29:20;22.80;;;15.63;;
18677;SDS011;9469;51.114;13.914;2023-12-04T22:34:25;23.57;;;15.47;;
18677;SDS011;9469;51.114;13.914;2023-12-04T22:39:30;20.40;;;14.67;;
18677;SDS011;9469;51.114;13.914;2023-12-04T22:44:40;22.93;;;15.40;;
18677;SDS011;9469;51.114;13.914;2023-12-04T22:49:45;19.93;;;14.63;;
18677;SDS011;9469;51.114;13.914;2023-12-04T22:54:50;22.30;;;14.83;;
18677;SDS011;9469;51.114;13.914;2023-12-04T22:59:58;22.43;;;15.73;;
18677;SDS011;9469;51.114;13.914;2023-12-04T23:05:03;21.73;;;14.60;;
18677;SDS011;9469;51.114;13.914;2023-12-04T23:10:09;23.83;;;15.90;;
18677;SDS011;9469;51.114;13.914;2023-12-04T23:15:17;24.10;;;16.83;;
18677;SDS011;9469;51.114;13.914;2023-12-04T23:20:23;23.87;;;15.10;;
18677;SDS011;9469;51.114;13.914;2023-12-04T23:25:28;22.17;;;16.17;;
18677;SDS011;9469;51.114;13.914;2023-12-04T23:30:36;25.83;;;16.60;;
18677;SDS011;9469;51.114;13.914;2023-12-04T23:35:44;25.87;;;16.80;;
18677;SDS011;9469;51.114;13.914;2023-12-04T23:40:49;21.63;;;16.07;;
18677;SDS011;9469;51.114;13.914;2023-12-04T23:45:57;24.40;;;16.97;;
18677;SDS011;9469;51.114;13.914;2023-12-04T23:51:02;24.23;;;15.60;;
18677;SDS011;9469;51.114;13.914;2023-12-04T23:56:08;22.47;;;16.07;;
